createdAt,value
2022-11-29T00:00:24.631Z,4.10
2022-11-29T00:03:14.508Z,4.50
2022-11-29T00:06:10.050Z,4.35
2022-11-29T00:09:02.770Z,4.55
2022-11-29T00:12:10.690Z,4.90
2022-11-29T00:15:00.423Z,3.97
2022-11-29T00:17:49.832Z,4.45
2022-11-29T00:20:41.010Z,4.63
2022-11-29T00:23:30.656Z,4.28
2022-11-29T00:26:20.253Z,4.10
2022-11-29T00:29:10.150Z,4.30
2022-11-29T00:32:00.084Z,4.90
2022-11-29T00:34:49.731Z,4.22
2022-11-29T00:37:39.670Z,4.35
2022-11-29T00:40:29.572Z,4.22
2022-11-29T00:43:19.112Z,4.45
2022-11-29T00:46:09.971Z,4.38
2022-11-29T00:48:59.701Z,4.40
2022-11-29T00:51:49.165Z,4.07
2022-11-29T00:54:38.874Z,4.10
2022-11-29T00:57:28.259Z,5.00
2022-11-29T01:00:22.193Z,3.85
2022-11-29T01:03:12.186Z,4.57
2022-11-29T01:06:06.665Z,4.05
2022-11-29T01:08:56.392Z,4.60
2022-11-29T01:11:46.054Z,4.85
2022-11-29T01:14:35.752Z,3.95
2022-11-29T01:17:25.260Z,4.00
2022-11-29T01:20:15.191Z,4.10
2022-11-29T01:23:04.932Z,4.38
2022-11-29T01:26:12.232Z,4.35
2022-11-29T01:29:02.156Z,4.07
2022-11-29T01:31:51.975Z,4.28
2022-11-29T01:34:41.705Z,4.63
2022-11-29T01:37:31.672Z,4.13
2022-11-29T01:40:22.373Z,4.20
2022-11-29T01:43:19.572Z,4.20
2022-11-29T01:46:09.285Z,3.90
2022-11-29T01:49:03.252Z,4.20
2022-11-29T01:52:00.238Z,3.97
2022-11-29T01:54:53.401Z,4.00
2022-11-29T01:57:43.472Z,5.28
2022-11-29T02:00:33.831Z,3.95
2022-11-29T02:03:23.386Z,3.85
2022-11-29T02:06:13.353Z,3.85
2022-11-29T02:09:03.033Z,3.85
2022-11-29T02:11:58.199Z,3.83
2022-11-29T02:14:59.141Z,4.70
2022-11-29T02:18:04.991Z,4.85
2022-11-29T02:21:12.556Z,4.28
2022-11-29T02:24:31.263Z,4.40
2022-11-29T02:27:53.946Z,4.10
2022-11-29T02:30:55.580Z,3.80
2022-11-29T02:34:19.792Z,4.93
2022-11-29T02:37:39.497Z,4.32
2022-11-29T02:40:36.056Z,4.85
2022-11-29T02:43:52.797Z,5.25
2022-11-29T02:47:06.746Z,4.03
2022-11-29T02:50:36.213Z,4.25
2022-11-29T02:53:50.185Z,5.75
2022-11-29T02:57:19.962Z,4.53
2022-11-29T03:00:15.910Z,3.90
2022-11-29T03:03:14.677Z,4.88
2022-11-29T03:06:24.950Z,4.35
2022-11-29T03:09:46.177Z,4.72
2022-11-29T03:12:54.771Z,5.57
2022-11-29T03:15:59.134Z,4.72
2022-11-29T03:19:26.962Z,5.05
2022-11-29T03:22:37.457Z,5.05
2022-11-29T03:25:56.429Z,4.00
2022-11-29T03:28:53.654Z,4.63
2022-11-29T03:31:53.392Z,5.05
2022-11-29T03:35:01.572Z,6.25
2022-11-29T03:38:13.412Z,5.10
2022-11-29T03:41:18.534Z,4.20
2022-11-29T03:44:20.072Z,4.40
2022-11-29T03:47:16.235Z,5.40
2022-11-29T03:50:09.620Z,5.00
2022-11-29T03:53:14.137Z,5.15
2022-11-29T03:56:23.414Z,5.25
2022-11-29T03:59:28.580Z,6.18
2022-11-29T04:03:02.081Z,4.97
2022-11-29T04:06:06.612Z,5.85
2022-11-29T04:09:09.313Z,4.53
2022-11-29T04:12:37.251Z,5.23
2022-11-29T04:15:59.103Z,4.32
2022-11-29T04:19:25.857Z,5.15
2022-11-29T04:22:57.636Z,4.40
2022-11-29T04:26:09.971Z,4.47
2022-11-29T04:29:35.412Z,4.50
2022-11-29T04:32:52.392Z,4.28
2022-11-29T04:35:53.711Z,4.78
2022-11-29T04:38:49.046Z,5.03
2022-11-29T04:42:10.532Z,4.30
2022-11-29T04:45:15.573Z,3.85
2022-11-29T04:48:34.532Z,4.05
2022-11-29T04:52:05.231Z,4.03
2022-11-29T04:55:48.970Z,4.78
2022-11-29T04:58:53.270Z,4.53
2022-11-29T05:01:56.187Z,5.40
2022-11-29T05:05:03.980Z,4.22
2022-11-29T05:08:14.615Z,4.10
2022-11-29T05:11:35.233Z,4.28
2022-11-29T05:14:43.912Z,4.55
2022-11-29T05:18:04.036Z,3.90
2022-11-29T05:21:42.634Z,4.40
2022-11-29T05:25:00.577Z,4.35
2022-11-29T05:28:16.826Z,3.85
2022-11-29T05:31:20.923Z,3.83
2022-11-29T05:34:45.336Z,5.15
2022-11-29T05:37:45.353Z,4.68
2022-11-29T05:40:53.514Z,4.00
2022-11-29T05:43:57.970Z,4.00
2022-11-29T05:47:13.432Z,4.30
2022-11-29T05:50:20.278Z,4.13
2022-11-29T05:53:36.891Z,4.20
2022-11-29T05:57:03.236Z,4.57
2022-11-29T05:59:53.672Z,6.97
2022-11-29T06:02:54.972Z,5.65
2022-11-29T06:05:48.607Z,6.47
2022-11-29T06:08:55.434Z,7.13
2022-11-29T06:11:53.598Z,5.57
2022-11-29T06:15:14.870Z,6.10
2022-11-29T06:18:39.397Z,7.75
2022-11-29T06:21:52.281Z,5.72
2022-11-29T06:25:18.388Z,4.53
2022-11-29T06:28:13.554Z,6.40
2022-11-29T06:31:18.190Z,5.40
2022-11-29T06:34:32.675Z,5.47
2022-11-29T06:37:28.845Z,6.32
2022-11-29T06:40:18.927Z,5.28
2022-11-29T06:43:08.986Z,5.13
2022-11-29T06:46:21.287Z,5.15
2022-11-29T06:49:16.209Z,5.20
2022-11-29T06:52:29.511Z,5.13
2022-11-29T06:55:27.278Z,5.13
2022-11-29T06:58:53.970Z,5.00
2022-11-29T07:01:57.741Z,4.50
2022-11-29T07:04:56.138Z,5.57
2022-11-29T07:07:47.355Z,4.95
2022-11-29T07:10:41.797Z,5.22
2022-11-29T07:13:31.659Z,4.38
2022-11-29T07:16:27.244Z,4.90
2022-11-29T07:19:35.167Z,4.50
2022-11-29T07:22:33.655Z,4.72
2022-11-29T07:25:26.852Z,4.90
2022-11-29T07:28:27.409Z,4.78
2022-11-29T07:31:44.313Z,6.45
2022-11-29T07:34:48.996Z,4.43
2022-11-29T07:37:48.979Z,5.00
2022-11-29T07:40:38.574Z,4.43
2022-11-29T07:43:42.442Z,4.05
2022-11-29T07:46:32.126Z,4.05
2022-11-29T07:49:21.781Z,3.97
2022-11-29T07:52:15.637Z,4.30
2022-11-29T07:55:06.369Z,4.03
2022-11-29T07:57:55.819Z,4.38
2022-11-29T08:00:46.262Z,5.38
2022-11-29T08:03:36.658Z,4.32
2022-11-29T08:06:29.063Z,4.60
2022-11-29T08:09:19.332Z,4.50
2022-11-29T08:12:08.818Z,4.30
2022-11-29T08:14:58.263Z,4.38
2022-11-29T08:17:48.038Z,4.75
2022-11-29T08:20:37.951Z,6.25
2022-11-29T08:23:27.638Z,4.35
2022-11-29T08:26:18.501Z,5.95
2022-11-29T08:29:08.010Z,4.85
2022-11-29T08:31:57.592Z,5.18
2022-11-29T08:34:47.489Z,4.68
2022-11-29T08:37:38.558Z,4.30
2022-11-29T08:40:28.273Z,4.45
2022-11-29T08:43:17.609Z,5.38
2022-11-29T08:46:07.438Z,5.30
2022-11-29T08:48:56.827Z,4.47
2022-11-29T08:51:46.491Z,4.35
2022-11-29T08:54:36.636Z,5.20
2022-11-29T08:57:41.472Z,4.95
2022-11-29T09:00:31.129Z,5.80
2022-11-29T09:03:39.582Z,5.22
2022-11-29T09:06:33.709Z,4.97
2022-11-29T09:09:23.294Z,4.40
2022-11-29T09:12:13.012Z,4.30
2022-11-29T09:15:02.743Z,4.30
2022-11-29T09:17:52.116Z,4.63
2022-11-29T09:20:44.864Z,4.78
2022-11-29T09:23:34.172Z,5.18
2022-11-29T09:26:23.811Z,4.45
2022-11-29T09:29:13.624Z,5.82
2022-11-29T09:32:03.158Z,5.55
2022-11-29T09:34:52.710Z,4.68
2022-11-29T09:37:45.375Z,8.20
2022-11-29T09:40:59.282Z,6.57
2022-11-29T09:44:12.901Z,4.43
2022-11-29T09:47:36.686Z,4.72
2022-11-29T09:50:44.442Z,5.55
2022-11-29T09:53:49.566Z,5.18
2022-11-29T09:56:54.142Z,5.20
2022-11-29T09:59:47.160Z,5.30
2022-11-29T10:02:48.856Z,6.78
2022-11-29T10:06:03.359Z,5.93
2022-11-29T10:09:05.485Z,6.03
2022-11-29T10:12:07.059Z,4.32
2022-11-29T10:15:18.412Z,5.07
2022-11-29T10:18:23.200Z,5.28
2022-11-29T10:21:24.724Z,4.75
2022-11-29T10:24:21.643Z,5.07
2022-11-29T10:27:30.753Z,6.22
2022-11-29T10:30:20.338Z,6.28
2022-11-29T10:33:27.307Z,5.82
2022-11-29T10:36:40.925Z,6.28
2022-11-29T10:39:49.337Z,6.13
2022-11-29T10:42:54.421Z,6.68
2022-11-29T10:45:57.071Z,5.28
2022-11-29T10:48:46.909Z,7.95
2022-11-29T10:51:36.747Z,8.52
2022-11-29T10:54:31.385Z,6.03
2022-11-29T10:57:23.323Z,6.72
2022-11-29T11:00:14.116Z,7.95
2022-11-29T11:03:27.076Z,6.25
2022-11-29T11:06:20.732Z,7.53
2022-11-29T11:09:19.291Z,8.07
2022-11-29T11:12:21.555Z,6.82
2022-11-29T11:15:31.728Z,9.45
2022-11-29T11:18:23.700Z,8.02
2022-11-29T11:21:16.594Z,6.70
2022-11-29T11:24:06.335Z,6.70
2022-11-29T11:26:56.742Z,8.90
2022-11-29T11:29:46.539Z,7.38
2022-11-29T11:32:36.113Z,9.38
2022-11-29T11:35:25.789Z,7.35
2022-11-29T11:38:19.550Z,10.25
2022-11-29T11:41:24.226Z,7.72
2022-11-29T11:44:56.371Z,7.45
2022-11-29T11:47:49.132Z,7.72
2022-11-29T11:50:53.270Z,8.35
2022-11-29T11:53:45.250Z,7.18
2022-11-29T11:56:37.460Z,8.18
2022-11-29T11:59:28.755Z,8.38
2022-11-29T12:02:30.588Z,6.40
2022-11-29T12:05:21.660Z,8.82
2022-11-29T12:08:14.812Z,8.77
2022-11-29T12:11:09.136Z,9.30
2022-11-29T12:14:00.271Z,6.47
2022-11-29T12:16:54.051Z,8.23
2022-11-29T12:20:00.588Z,7.95
2022-11-29T12:23:24.513Z,9.50
2022-11-29T12:26:58.544Z,7.90
2022-11-29T12:29:37.133Z,7.15
2022-11-29T12:32:54.035Z,7.18
2022-11-29T12:36:10.340Z,6.75
2022-11-29T12:39:17.802Z,7.68
2022-11-29T12:42:27.871Z,7.47
2022-11-29T12:45:23.482Z,6.22
2022-11-29T12:48:14.718Z,9.27
2022-11-29T12:51:30.997Z,9.75
2022-11-29T12:54:50.340Z,11.90
2022-11-29T12:57:50.498Z,10.93
2022-11-29T13:01:12.234Z,9.15
2022-11-29T13:05:01.619Z,11.55
2022-11-29T13:08:31.208Z,10.48
2022-11-29T13:11:36.598Z,9.43
2022-11-29T13:14:45.441Z,11.93
2022-11-29T13:18:32.896Z,9.70
2022-11-29T13:21:29.772Z,10.38
2022-11-29T13:24:42.496Z,8.90
2022-11-29T13:27:38.132Z,10.57
2022-11-29T13:30:28.012Z,10.60
2022-11-29T13:33:24.310Z,9.40
2022-11-29T13:36:19.854Z,9.93
2022-11-29T13:39:15.418Z,9.00
2022-11-29T13:42:32.470Z,9.80
2022-11-29T13:45:40.435Z,8.80
2022-11-29T13:48:30.166Z,9.95
2022-11-29T13:51:39.953Z,10.02
2022-11-29T13:54:34.797Z,9.98
2022-11-29T13:57:24.943Z,8.43
2022-11-29T14:00:50.122Z,10.63
2022-11-29T14:04:15.577Z,10.25
2022-11-29T14:07:15.716Z,8.63
2022-11-29T14:10:28.404Z,9.02
2022-11-29T14:13:18.699Z,11.13
2022-11-29T14:16:36.187Z,8.15
2022-11-29T14:19:33.432Z,7.70
2022-11-29T14:22:24.050Z,9.65
2022-11-29T14:25:51.295Z,8.60
2022-11-29T14:28:42.457Z,9.07
2022-11-29T14:31:53.084Z,10.02
2022-11-29T14:34:48.336Z,11.75
2022-11-29T14:38:15.067Z,9.10
2022-11-29T14:41:33.703Z,8.15
2022-11-29T14:44:57.090Z,8.50
2022-11-29T14:47:50.546Z,8.05
2022-11-29T14:53:37.462Z,10.43
2022-11-29T14:56:32.929Z,9.95
2022-11-29T14:59:50.403Z,8.02
2022-11-29T15:02:42.732Z,10.40
2022-11-29T15:05:38.273Z,9.63
2022-11-29T15:08:42.985Z,8.52
2022-11-29T15:11:51.345Z,8.35
2022-11-29T15:15:01.906Z,8.35
2022-11-29T15:18:08.443Z,7.93
2022-11-29T15:21:25.007Z,6.28
2022-11-29T15:24:17.220Z,8.52
2022-11-29T15:27:06.994Z,5.78
2022-11-29T15:29:56.985Z,7.85
2022-11-29T15:32:46.738Z,7.90
2022-11-29T15:35:37.564Z,7.38
2022-11-29T15:38:27.248Z,8.45
2022-11-29T15:41:27.923Z,5.60
2022-11-29T15:44:23.702Z,8.30
2022-11-29T15:47:27.743Z,7.60
2022-11-29T15:50:29.063Z,7.95
2022-11-29T15:53:30.697Z,11.73
2022-11-29T15:56:46.836Z,8.00
2022-11-29T15:59:50.108Z,6.70
2022-11-29T16:02:49.980Z,10.70
2022-11-29T16:05:42.650Z,8.75
2022-11-29T16:08:37.057Z,5.95
2022-11-29T16:11:29.026Z,6.35
2022-11-29T16:14:30.502Z,6.90
2022-11-29T16:17:22.059Z,7.60
2022-11-29T16:20:20.436Z,8.02
2022-11-29T16:23:12.501Z,6.13
2022-11-29T16:26:04.406Z,7.22
2022-11-29T16:28:57.245Z,6.10
2022-11-29T16:31:46.940Z,6.40
2022-11-29T16:34:36.586Z,5.88
2022-11-29T16:37:30.273Z,6.32
2022-11-29T16:40:22.938Z,5.05
2022-11-29T16:43:25.197Z,5.63
2022-11-29T16:46:23.700Z,5.75
2022-11-29T16:49:35.669Z,5.78
2022-11-29T16:52:30.885Z,5.75
2022-11-29T16:55:20.579Z,5.32
2022-11-29T16:58:13.918Z,5.35
2022-11-29T17:01:23.767Z,5.60
2022-11-29T17:04:13.556Z,6.15
2022-11-29T17:07:18.548Z,5.47
2022-11-29T17:10:12.912Z,6.43
2022-11-29T17:13:05.361Z,8.02
2022-11-29T17:15:54.983Z,4.70
2022-11-29T17:18:46.047Z,5.40
2022-11-29T17:21:36.253Z,6.25
2022-11-29T17:24:26.751Z,5.90
2022-11-29T17:27:16.181Z,6.43
2022-11-29T17:30:07.572Z,4.85
2022-11-29T17:32:57.258Z,4.40
2022-11-29T17:35:47.185Z,5.50
2022-11-29T17:38:37.299Z,5.20
2022-11-29T17:41:27.869Z,4.72
2022-11-29T17:44:17.394Z,4.70
2022-11-29T17:47:06.972Z,5.18
2022-11-29T17:49:56.605Z,5.10
2022-11-29T17:52:46.483Z,6.20
2022-11-29T17:55:35.980Z,5.05
2022-11-29T17:58:25.566Z,4.72
2022-11-29T18:01:20.123Z,5.22
2022-11-29T18:04:09.659Z,6.55
2022-11-29T18:06:59.825Z,4.38
2022-11-29T18:09:50.215Z,4.35
2022-11-29T18:12:39.628Z,4.45
2022-11-29T18:15:29.162Z,4.63
2022-11-29T18:18:18.622Z,4.90
2022-11-29T18:21:09.912Z,5.30
2022-11-29T18:24:01.793Z,4.32
2022-11-29T18:26:51.962Z,4.55
2022-11-29T18:29:41.491Z,5.15
2022-11-29T18:32:31.943Z,4.97
2022-11-29T18:35:21.566Z,4.40
2022-11-29T18:38:15.708Z,4.30
2022-11-29T18:41:20.509Z,4.10
2022-11-29T18:44:12.401Z,4.47
2022-11-29T18:47:01.938Z,4.05
2022-11-29T18:49:51.646Z,4.57
2022-11-29T18:52:41.254Z,4.00
2022-11-29T18:55:30.984Z,4.05
2022-11-29T18:58:20.440Z,4.75
2022-11-29T19:01:13.149Z,5.40
2022-11-29T19:04:03.560Z,4.68
2022-11-29T19:06:53.000Z,4.30
2022-11-29T19:09:42.408Z,4.18
2022-11-29T19:12:32.221Z,5.03
2022-11-29T19:15:21.568Z,3.83
2022-11-29T19:18:11.069Z,4.32
2022-11-29T19:21:21.523Z,4.38
2022-11-29T19:24:15.605Z,4.20
2022-11-29T19:27:05.846Z,4.00
2022-11-29T19:29:55.344Z,4.20
2022-11-29T19:32:44.971Z,3.70
2022-11-29T19:35:36.463Z,4.25
2022-11-29T19:38:26.129Z,4.70
2022-11-29T19:41:18.383Z,3.92
2022-11-29T19:44:09.536Z,4.32
2022-11-29T19:46:59.061Z,4.13
2022-11-29T19:49:48.710Z,3.70
2022-11-29T19:52:38.418Z,4.00
2022-11-29T19:55:27.923Z,4.97
2022-11-29T19:58:17.475Z,4.13
2022-11-29T20:01:08.659Z,3.97
2022-11-29T20:03:59.714Z,4.53
2022-11-29T20:06:49.403Z,4.10
2022-11-29T20:09:39.080Z,3.70
2022-11-29T20:12:28.429Z,3.90
2022-11-29T20:15:18.307Z,3.72
2022-11-29T20:18:08.823Z,3.88
2022-11-29T20:21:07.088Z,4.07
2022-11-29T20:24:01.533Z,4.20
2022-11-29T20:26:51.168Z,3.60
2022-11-29T20:29:40.643Z,3.70
2022-11-29T20:32:30.091Z,4.05
2022-11-29T20:35:20.180Z,3.58
2022-11-29T20:38:15.932Z,3.67
2022-11-29T20:41:20.691Z,4.63
2022-11-29T20:44:14.645Z,3.83
2022-11-29T20:47:18.286Z,4.05
2022-11-29T20:53:05.901Z,3.28
2022-11-29T20:55:55.626Z,4.10
2022-11-29T20:58:45.156Z,3.70
2022-11-29T21:01:34.765Z,4.13
2022-11-29T21:04:24.383Z,3.28
2022-11-29T21:07:13.912Z,3.78
2022-11-29T21:10:04.489Z,4.43
2022-11-29T21:12:54.420Z,3.80
2022-11-29T21:15:44.616Z,3.78
2022-11-29T21:18:34.987Z,3.80
2022-11-29T21:21:34.651Z,3.50
2022-11-29T21:24:32.797Z,5.85
2022-11-29T21:27:35.882Z,3.40
2022-11-29T21:30:26.507Z,3.53
2022-11-29T21:33:16.146Z,4.25
2022-11-29T21:36:07.313Z,3.75
2022-11-29T21:38:59.738Z,3.53
2022-11-29T21:41:51.811Z,4.45
2022-11-29T21:44:41.250Z,3.88
2022-11-29T21:47:31.668Z,3.20
2022-11-29T21:50:21.109Z,3.72
2022-11-29T21:53:10.758Z,3.22
2022-11-29T21:56:01.703Z,3.40
2022-11-29T21:58:51.486Z,3.03
2022-11-29T22:01:41.173Z,3.45
2022-11-29T22:04:30.859Z,3.78
2022-11-29T22:07:20.305Z,3.13
2022-11-29T22:10:13.444Z,3.10
2022-11-29T22:13:03.278Z,3.10
2022-11-29T22:15:52.868Z,3.72
2022-11-29T22:18:42.539Z,3.50
2022-11-29T22:21:32.104Z,4.15
2022-11-29T22:24:24.215Z,3.70
2022-11-29T22:27:14.579Z,3.30
2022-11-29T22:30:04.017Z,3.35
2022-11-29T22:32:53.475Z,3.00
2022-11-29T22:35:46.276Z,3.47
2022-11-29T22:38:36.579Z,3.80
2022-11-29T22:41:26.682Z,3.17
2022-11-29T22:44:16.417Z,2.92
2022-11-29T22:47:05.907Z,3.53
2022-11-29T22:49:55.405Z,3.67
2022-11-29T22:52:44.747Z,3.13
2022-11-29T22:55:34.269Z,3.10
2022-11-29T22:58:24.265Z,3.20
2022-11-29T23:01:19.520Z,3.22
2022-11-29T23:04:10.258Z,3.22
2022-11-29T23:06:59.930Z,3.50
2022-11-29T23:09:49.340Z,3.25
2022-11-29T23:12:38.741Z,3.28
2022-11-29T23:15:28.174Z,3.15
2022-11-29T23:18:17.794Z,2.75
2022-11-29T23:21:09.946Z,3.30
2022-11-29T23:24:03.153Z,3.10
2022-11-29T23:26:52.625Z,3.13
2022-11-29T23:29:42.184Z,3.10
2022-11-29T23:32:31.653Z,3.42
2022-11-29T23:35:21.383Z,2.80
2022-11-29T23:38:10.926Z,3.33
2022-11-29T23:41:03.564Z,2.88
2022-11-29T23:43:53.390Z,2.95
2022-11-29T23:46:42.935Z,3.22
2022-11-29T23:49:32.325Z,3.47
2022-11-29T23:52:21.883Z,3.00
2022-11-29T23:55:15.501Z,3.15
2022-11-29T23:58:04.997Z,3.05
